Latest Weather Observations for Dubbo

IDN60801

Issued at 1:33 am EDT Tuesday 23 December 2014 (issued every 30 minutes, with the page automatically refreshed every 10 minutes)

About weather observations | Map of weather stations | Latest weather observations for NSW | Other Formats
Station Details ID: 065070 Name: DUBBO AIRPORT AWS Lat: -32.22 Lon: 148.58 Height: 284.0 m
Data from the previous 72 hours. | See also: Recent months at Dubbo
Date/Time
EDT
Temp
°C
App
Temp
°C
Dew
Point
Rel
Hum
%
Delta-T
°C
Wind Press
QNH
hPa
Press
MSL
hPa
Rain
since 9 am
mm
Dir
 
Spd
km/h
Gust
km/h
Spd
kts
Gust
kts
23/01:30am 20.8 21.1 19.6 93 0.8 SSE 17 22 9 12 1014.6 1013.3 5.8
23/01:00am 21.2 21.9 19.7 91 1.0 S 15 19 8 10 1015.2 1013.9 5.8
23/12:30am 21.1 22.5 19.6 91 1.0 SE 11 13 6 7 1014.8 1013.5 5.8
23/12:00am 21.5 22.9 18.7 84 1.8 SE 9 15 5 8 1014.9 1013.6 5.8
 
Date/Time
EDT
Temp
°C
App
Temp
°C
Dew
Point
Rel
Hum
%
Delta-T
°C
Wind Press
QNH
hPa
Press
MSL
hPa
Rain
since 9 am
mm
Dir
 
Spd
km/h
Gust
km/h
Spd
kts
Gust
kts
22/11:30pm 21.8 21.3 18.6 82 2.0 SSE 19 26 10 14 1014.5 1013.1 5.8
22/11:00pm 21.4 20.4 18.8 85 1.7 ESE 22 28 12 15 1014.0 1012.6 5.8
22/10:30pm 21.2 20.2 18.9 87 1.5 ESE 22 30 12 16 1014.3 1012.9 5.8
22/10:00pm 21.4 21.2 19.7 90 1.1 ESE 20 28 11 15 1014.6 1013.3 5.8
22/09:30pm 20.7 20.2 19.9 95 0.5 E 22 30 12 16 1014.2 1012.8 5.8
22/09:05pm 20.4 19.0 19.7 96 0.5 E 26 32 14 17 1014.4 1013.0 5.6
22/09:00pm 20.4 19.0 19.6 95 0.5 E 26 32 14 17 1014.5 1013.1 5.4
22/08:35pm 21.0 18.1 19.3 90 1.1 NW 33 52 18 28 1015.4 1014.1 3.2
22/08:31pm 21.6 19.1 18.0 80 2.3 NNW 28 52 15 28 1015.1 1013.8 1.8
22/08:30pm 22.4 20.2 17.8 75 2.9 NNW 26 52 14 28 1015.0 1013.7 1.4
22/08:28pm 24.2 23.1 17.2 65 4.4 N 19 43 10 23 1014.9 1013.6 0.6
22/08:24pm 27.2 26.9 17.4 55 6.2 ENE 15 26 8 14 1014.3 1012.9 0.0
22/08:14pm 28.0 24.0 15.3 46 7.8 ESE 30 48 16 26 1012.0 1010.7 0.0
22/08:00pm 27.9 23.6 15.9 48 7.5 SSE 33 50 18 27 1011.7 1010.4 0.0
22/07:59pm 27.9 23.8 15.9 48 7.5 SSE 32 50 17 27 1011.6 1010.3 0.0
22/07:30pm 29.2 26.5 15.7 44 8.4 ENE 24 35 13 19 1010.9 1009.5 0.0
22/07:00pm 30.3 26.4 15.6 41 9.2 ENE 30 39 16 21 1010.4 1009.0 0.0
22/06:30pm 30.9 26.9 15.3 38 9.7 ENE 30 39 16 21 1010.1 1008.7 0.0
22/06:00pm 32.2 29.5 15.7 37 10.4 E 24 33 13 18 1009.8 1008.4 0.0
22/05:30pm 33.5 30.8 15.5 34 11.4 E 24 37 13 20 1009.8 1008.4 0.0
22/05:07pm 33.0 29.3 15.9 35 10.8 E 30 50 16 27 1009.9 1008.5 0.0
22/05:00pm 34.3 30.9 15.7 32 11.8 E 28 37 15 20 1009.9 1008.5 0.0
22/04:30pm 36.2 33.7 13.6 25 14.0 N 19 32 10 17 1010.4 1009.0 0.0
22/04:00pm 35.3 32.0 15.1 30 12.8 NNW 26 35 14 19 1010.8 1009.4 0.0
22/03:30pm 36.0 33.2 17.2 33 12.2 NNW 28 41 15 22 1011.2 1009.8 0.0
22/03:12pm 35.7 32.2 16.4 31 12.4 N 30 48 16 26 1011.3 1009.9 0.0
22/03:00pm 34.7 32.3 16.5 33 11.7 N 24 35 13 19 1011.5 1010.2 0.0
22/02:30pm 34.9 32.4 16.2 32 12.0 NNW 24 41 13 22 1011.9 1010.6 0.0
22/02:01pm 37.3 33.7 16.3 29 13.6 N 30 50 16 27 1012.4 1011.0 0.0
22/02:00pm 35.4 31.2 14.6 28 13.0 N 30 41 16 22 1012.5 1011.1 0.0
22/01:33pm 35.1 31.0 13.8 27 13.2 N 28 46 15 25 1013.1 1011.7 0.0
22/01:30pm 35.4 32.3 15.7 31 12.5 N 26 46 14 25 1013.2 1011.8 0.0
22/01:25pm 35.2 32.1 15.5 30 12.5 N 26 46 14 25 1013.3 1011.9 0.0
22/01:00pm 34.2 31.1 15.6 32 11.8 N 26 41 14 22 1013.9 1012.5 0.0
22/12:30pm 33.2 30.7 16.1 35 10.9 NNW 24 32 13 17 1014.6 1013.3 0.0
22/12:00pm 32.8 29.6 16.2 37 10.5 N 28 41 15 22 1015.0 1013.7 0.0
22/11:30am 33.5 32.2 17.2 37 10.5 N 20 32 11 17 1015.3 1014.0 0.0
22/11:00am 32.3 30.4 16.6 39 10.0 N 22 35 12 19 1015.4 1014.1 0.0
22/10:30am 30.5 26.8 15.0 39 9.6 N 28 39 15 21 1015.6 1014.3 0.0
22/10:00am 28.9 25.0 14.3 40 8.9 N 28 39 15 21 1015.8 1014.5 0.0
22/09:30am 28.1 24.9 15.4 46 7.8 N 26 35 14 19 1015.8 1014.5 0.0
22/09:00am 28.3 25.8 16.2 47 7.6 N 24 32 13 17 1015.6 1014.3 0.0
22/08:30am 27.3 24.9 16.3 51 6.9 NNE 24 33 13 18 1015.7 1014.4 0.0
22/08:00am 26.2 26.1 17.0 57 5.8 NE 13 19 7 10 1015.6 1014.3 0.0
22/07:30am 23.9 23.0 15.9 61 4.9 ENE 15 20 8 11 1015.1 1013.8 0.0
22/07:00am 23.2 22.2 16.5 66 4.1 ENE 17 20 9 11 1015.0 1013.7 0.0
22/06:30am 21.3 20.5 16.0 72 3.2 E 15 19 8 10 1014.8 1013.5 0.0
22/06:00am 20.5 19.8 15.3 72 3.1 ENE 13 15 7 8 1014.7 1013.4 0.0
22/05:30am 21.5 20.6 14.9 66 3.9 ENE 13 17 7 9 1014.3 1012.9 0.0
22/05:00am 22.3 21.2 15.2 64 4.3 ENE 15 19 8 10 1013.9 1012.5 0.0
22/04:30am 22.6 21.3 15.7 65 4.2 ENE 17 22 9 12 1013.6 1012.2 0.0
22/04:00am 22.8 21.2 15.9 65 4.2 ENE 19 22 10 12 1013.5 1012.1 0.0
22/03:30am 23.1 21.3 15.4 62 4.7 ENE 19 24 10 13 1013.4 1012.0 0.0
22/03:00am 23.5 21.6 15.3 60 5.0 ENE 19 26 10 14 1013.4 1012.0 0.0
22/02:30am 24.1 21.6 15.1 57 5.5 ENE 22 30 12 16 1013.4 1012.0 0.0
22/02:00am 24.5 21.9 14.9 55 5.8 ENE 22 33 12 18 1013.6 1012.2 0.0
22/01:30am 24.8 21.5 14.0 51 6.4 ENE 24 33 13 18 1013.7 1012.3 0.0
22/01:00am 25.0 21.9 13.5 48 6.8 E 22 28 12 15 1013.8 1012.4 0.0
22/12:30am 25.6 22.7 12.8 45 7.5 E 20 28 11 15 1014.0 1012.6 0.0
22/12:00am 26.3 22.9 12.4 42 8.1 ENE 22 35 12 19 1013.9 1012.5 0.0
 
Date/Time
EDT
Temp
°C
App
Temp
°C
Dew
Point
Rel
Hum
%
Delta-T
°C
Wind Press
QNH
hPa
Press
MSL
hPa
Rain
since 9 am
mm
Dir
 
Spd
km/h
Gust
km/h
Spd
kts
Gust
kts
21/11:30pm 25.9 24.5 13.4 46 7.4 ENE 13 17 7 9 1014.0 1012.6 0.0
21/11:00pm 26.4 24.9 13.2 44 7.8 ENE 13 17 7 9 1013.7 1012.3 0.0
21/10:30pm 25.2 23.1 12.4 45 7.5 NE 15 17 8 9 1013.4 1012.0 0.0
21/10:00pm 27.0 24.7 11.9 39 8.8 ENE 15 22 8 12 1013.4 1012.0 0.0
21/09:30pm 24.9 23.2 10.0 39 8.3 ESE 9 11 5 6 1013.1 1011.7 0.0
21/09:00pm 26.3 26.4 10.0 36 9.2 CALM 0 0 0 0 1012.5 1011.1 0.0
21/08:30pm 27.7 26.3 9.0 31 10.4 WNW 6 7 3 4 1012.4 1011.0 0.0
21/08:00pm 30.5 28.4 9.9 28 11.8 WNW 11 13 6 7 1012.3 1010.9 0.0
21/07:30pm 32.5 30.4 9.9 25 13.1 NNW 11 17 6 9 1012.1 1010.8 0.0
21/07:00pm 33.3 31.4 11.8 27 12.8 WSW 13 17 7 9 1011.8 1010.5 0.0
21/06:30pm 33.9 32.7 11.7 26 13.3 W 9 15 5 8 1011.6 1010.3 0.0
21/06:00pm 34.3 32.6 12.6 27 13.2 WSW 13 19 7 10 1011.6 1010.3 0.0
21/05:30pm 34.1 32.8 12.4 26 13.1 WSW 11 17 6 9 1011.7 1010.4 0.0
21/05:00pm 34.0 32.9 11.8 26 13.3 NW 9 15 5 8 1012.1 1010.8 0.0
21/04:30pm 33.5 31.4 12.5 28 12.7 NW 15 20 8 11 1012.5 1011.1 0.0
21/04:00pm 33.8 31.6 13.3 29 12.5 NNW 17 30 9 16 1012.9 1011.5 0.0
21/03:30pm 33.5 33.2 16.4 36 10.9 NNW 13 26 7 14 1013.3 1011.9 0.0
21/03:00pm 33.3 32.0 15.8 35 11.1 NW 17 28 9 15 1013.8 1012.4 0.0
21/02:30pm 33.2 33.5 17.0 38 10.4 N 11 26 6 14 1014.1 1012.7 0.0
21/02:00pm 33.1 33.0 16.9 38 10.4 N 13 24 7 13 1014.6 1013.3 0.0
21/01:30pm 32.0 31.8 18.6 45 8.8 NNE 17 28 9 15 1014.8 1013.5 0.0
21/01:25pm 33.1 32.5 18.5 42 9.6 N 19 28 10 15 1014.9 1013.6 0.0
21/01:08pm 31.6 30.8 17.1 41 9.3 NW 17 28 9 15 1015.1 1013.8 0.0
21/01:00pm 30.7 29.8 15.9 40 9.3 NNW 15 35 8 19 1015.1 1013.8 0.0
21/12:30pm 31.7 31.3 17.2 42 9.3 N 15 30 8 16 1015.5 1014.2 0.0
21/12:00pm 30.5 29.2 16.9 44 8.7 N 19 33 10 18 1016.0 1014.6 0.0
21/11:30am 29.0 27.3 14.8 42 8.7 N 17 26 9 14 1016.6 1015.2 0.0
21/11:00am 28.2 26.5 14.8 44 8.2 N 17 32 9 17 1016.8 1015.4 0.0
21/10:30am 27.9 25.7 14.9 45 8.0 NNE 20 28 11 15 1016.6 1015.2 0.0
21/10:00am 26.8 25.3 15.2 49 7.1 NE 17 28 9 15 1016.7 1015.3 0.0
21/09:30am 25.3 23.3 15.0 53 6.3 ENE 19 26 10 14 1017.0 1015.6 0.0
21/09:00am 23.8 21.3 14.2 55 5.7 E 20 30 11 16 1017.1 1015.7 0.0
21/08:30am 22.5 19.2 14.1 59 5.0 E 24 32 13 17 1017.4 1016.0 0.0
21/08:00am 21.2 17.9 14.1 64 4.2 E 24 30 13 16 1017.3 1015.9 0.0
21/07:30am 20.0 17.1 14.1 69 3.5 E 22 30 12 16 1017.2 1015.8 0.0
21/07:00am 19.0 15.9 13.4 70 3.2 E 22 30 12 16 1016.6 1015.2 0.0
21/06:30am 17.7 15.7 12.8 73 2.8 E 15 20 8 11 1016.1 1014.7 0.0
21/06:00am 17.2 14.4 12.7 75 2.5 ESE 19 26 10 14 1015.6 1014.3 0.0
21/05:30am 17.7 14.8 12.8 73 2.8 E 20 30 11 16 1015.3 1014.0 0.0
21/05:00am 17.8 14.9 12.9 73 2.8 ESE 20 26 11 14 1015.0 1013.7 0.0
21/04:30am 18.1 15.3 12.5 70 3.2 ESE 19 28 10 15 1014.9 1013.6 0.0
21/04:00am 18.5 16.4 12.3 67 3.5 ESE 15 20 8 11 1014.9 1013.6 0.0
21/03:30am 18.7 16.8 11.8 64 3.9 ESE 13 20 7 11 1014.8 1013.5 0.0
21/03:00am 19.4 16.8 11.9 62 4.2 ESE 17 24 9 13 1014.7 1013.4 0.0
21/02:30am 19.6 16.7 12.4 63 4.1 ESE 19 28 10 15 1014.8 1013.5 0.0
21/02:00am 19.7 16.9 12.7 64 4.0 ESE 19 26 10 14 1015.0 1013.7 0.0
21/01:30am 20.3 17.6 13.0 63 4.2 E 19 26 10 14 1015.3 1014.0 0.0
21/01:00am 20.9 18.5 12.8 60 4.7 E 17 28 9 15 1015.4 1014.1 0.0
21/12:30am 21.4 18.3 12.3 56 5.2 E 20 26 11 14 1015.3 1014.0 0.0
21/12:00am 22.3 18.5 12.3 53 5.7 E 24 35 13 19 1015.3 1014.0 0.0
 
Date/Time
EDT
Temp
°C
App
Temp
°C
Dew
Point
Rel
Hum
%
Delta-T
°C
Wind Press
QNH
hPa
Press
MSL
hPa
Rain
since 9 am
mm
Dir
 
Spd
km/h
Gust
km/h
Spd
kts
Gust
kts
20/11:30pm 22.5 18.9 10.0 45 6.9 E 19 24 10 13 1015.3 1014.0 0.0
20/11:00pm 23.1 19.7 9.1 41 7.6 E 17 24 9 13 1015.3 1014.0 0.0
20/10:30pm 23.4 19.6 5.8 32 9.0 S 15 19 8 10 1014.6 1013.3 0.0
20/10:00pm 22.3 18.8 5.3 33 8.6 SSW 13 17 7 9 1014.4 1013.0 0.0
20/09:30pm 23.7 20.1 5.1 30 9.5 SSW 13 17 7 9 1014.1 1012.7 0.0
20/09:00pm 24.8 21.2 5.1 28 10.1 SSW 13 15 7 8 1013.8 1012.4 0.0
20/08:30pm 25.2 21.7 5.4 28 10.2 SW 13 15 7 8 1013.5 1012.1 0.0
20/08:00pm 27.2 23.8 6.0 26 11.2 SW 13 17 7 9 1013.2 1011.8 0.0
20/07:30pm 29.2 26.5 7.2 25 12.0 S 11 20 6 11 1012.9 1011.5 0.0
20/07:00pm 30.2 28.3 7.4 24 12.5 E 7 15 4 8 1012.8 1011.4 0.0
20/06:30pm 30.6 28.9 7.7 24 12.7 NNE 6 11 3 6 1012.4 1011.0 0.0
20/06:00pm 30.7 28.1 7.8 24 12.7 E 11 15 6 8 1012.3 1010.9 0.0
20/05:30pm 30.6 28.2 7.1 23 12.9 SSE 9 13 5 7 1012.1 1010.8 0.0
20/05:00pm 30.6 27.8 7.1 23 12.9 SSE 11 19 6 10 1012.5 1011.1 0.0
20/04:30pm 30.2 27.2 6.1 22 12.9 NNE 11 17 6 9 1012.6 1011.2 0.0
20/04:00pm 30.0 27.9 6.6 23 12.7 S 7 13 4 7 1013.1 1011.7 0.0
20/03:30pm 29.9 26.5 5.9 22 12.8 ESE 13 24 7 13 1013.4 1012.0 0.0
20/03:00pm 29.8 26.3 7.1 24 12.4 S 15 24 8 13 1014.0 1012.6 0.0
20/02:30pm 29.4 26.4 7.9 26 11.9 SSE 13 24 7 13 1014.3 1012.9 0.0
20/02:00pm 28.9 25.6 8.0 27 11.5 SSE 15 24 8 13 1014.8 1013.5 0.0
20/01:30pm 28.6 25.7 8.3 28 11.2 SW 13 24 7 13 1015.1 1013.8 0.0
20/01:00pm 27.4 25.6 7.8 29 10.7 SSE 7 17 4 9 1015.5 1014.2 0.0
20/12:30pm 27.4 25.3 8.3 30 10.5 S 9 15 5 8 1016.0 1014.6 0.0
20/12:00pm 26.0 23.7 7.6 31 9.9 S 9 17 5 9 1016.6 1015.2 0.0
20/11:30am 26.2 23.9 10.4 37 8.9 SE 13 32 7 17 1016.7 1015.3 0.0
20/11:00am 25.3 23.4 10.4 39 8.4 ESE 11 19 6 10 1016.9 1015.5 0.0
20/10:30am 24.0 22.4 11.7 46 7.0 ESE 11 24 6 13 1017.0 1015.6 0.0
20/10:00am 23.3 21.1 12.0 49 6.5 ESE 15 24 8 13 1017.2 1015.8 0.0
20/09:30am 22.1 20.0 12.4 54 5.6 ESE 15 24 8 13 1017.3 1015.9 0.0
20/09:00am 21.5 18.4 12.1 55 5.3 ESE 20 26 11 14 1017.1 1015.7 -
20/08:30am 20.5 17.0 12.2 59 4.7 ESE 22 32 12 17 1017.0 1015.6 -
20/08:00am 18.7 14.6 11.5 63 4.0 ESE 24 32 13 17 1017.2 1015.8 -
20/07:30am 17.9 14.6 11.5 66 3.5 ESE 20 30 11 16 1017.0 1015.6 -
20/07:00am 16.7 13.9 11.4 71 2.9 ESE 17 26 9 14 1016.7 1015.3 -
20/06:30am 15.5 12.6 11.1 75 2.4 ESE 17 24 9 13 1016.4 1015.0 -
20/06:00am 14.6 12.1 11.0 79 1.9 ESE 15 22 8 12 1016.1 1014.7 -
20/05:30am 15.2 12.4 11.2 77 2.2 ESE 17 20 9 11 1015.7 1014.4 -
20/05:00am 15.2 12.4 11.2 77 2.2 ESE 17 26 9 14 1015.5 1014.2 -
20/04:30am 15.2 11.9 11.0 76 2.3 ESE 19 26 10 14 1015.5 1014.2 -
20/04:00am 15.4 12.6 11.2 76 2.3 E 17 22 9 12 1015.3 1014.0 -
20/03:30am 15.3 12.3 10.7 74 2.5 E 17 22 9 12 1015.3 1014.0 -
20/03:00am 15.3 12.5 9.9 70 2.9 ENE 15 20 8 11 1015.5 1014.2 0.0
20/02:30am 15.4 11.5 6.9 57 4.2 E 17 22 9 12 1015.6 1014.3 -
20/02:00am 13.6 8.1 0.9 42 5.5 ESE 19 26 10 14 1015.7 1014.4 -

Other Formats:

Comma delimited format used in spreadsheet applications
http://www.bom.gov.au/fwo/IDN60801/IDN60801.95719.axf

JavaScript Object Notation format (JSON) in row-major order
http://www.bom.gov.au/fwo/IDN60801/IDN60801.95719.json